sensor_id;sensor_type;location;lat;lon;timestamp;pressure;altitude;pressure_sealevel;temperature
10869;BMP180;62667;48.698;8.762;2023-07-13T00:02:22;96066.00;;;18.40
10869;BMP180;62667;48.698;8.762;2023-07-13T00:04:50;96077.00;;;18.40
10869;BMP180;62667;48.698;8.762;2023-07-13T00:07:18;96064.00;;;18.40
10869;BMP180;62667;48.698;8.762;2023-07-13T00:09:46;96068.00;;;18.20
10869;BMP180;62667;48.698;8.762;2023-07-13T00:12:26;96066.00;;;18.10
10869;BMP180;62667;48.698;8.762;2023-07-13T00:14:56;96061.00;;;18.00
10869;BMP180;62667;48.698;8.762;2023-07-13T00:17:24;96059.00;;;18.00
10869;BMP180;62667;48.698;8.762;2023-07-13T00:19:52;96060.00;;;17.90
10869;BMP180;62667;48.698;8.762;2023-07-13T00:22:22;96057.00;;;17.90
10869;BMP180;62667;48.698;8.762;2023-07-13T00:24:50;96057.00;;;18.00
10869;BMP180;62667;48.698;8.762;2023-07-13T00:27:18;96053.00;;;18.10
10869;BMP180;62667;48.698;8.762;2023-07-13T00:29:45;96047.00;;;18.10
10869;BMP180;62667;48.698;8.762;2023-07-13T00:32:13;96047.00;;;18.10
10869;BMP180;62667;48.698;8.762;2023-07-13T00:34:40;96054.00;;;18.20
10869;BMP180;62667;48.698;8.762;2023-07-13T00:37:09;96040.00;;;18.20
10869;BMP180;62667;48.698;8.762;2023-07-13T00:39:37;96044.00;;;18.50
10869;BMP180;62667;48.698;8.762;2023-07-13T00:42:05;96043.00;;;18.50
10869;BMP180;62667;48.698;8.762;2023-07-13T00:44:33;96050.00;;;18.50
10869;BMP180;62667;48.698;8.762;2023-07-13T00:47:00;96043.00;;;18.40
10869;BMP180;62667;48.698;8.762;2023-07-13T00:49:30;96038.00;;;18.20
10869;BMP180;62667;48.698;8.762;2023-07-13T00:52:03;96045.00;;;18.30
10869;BMP180;62667;48.698;8.762;2023-07-13T00:54:36;96038.00;;;18.30
10869;BMP180;62667;48.698;8.762;2023-07-13T00:57:08;96044.00;;;18.20
10869;BMP180;62667;48.698;8.762;2023-07-13T00:59:37;96042.00;;;18.20
10869;BMP180;62667;48.698;8.762;2023-07-13T01:02:07;96052.00;;;18.10
10869;BMP180;62667;48.698;8.762;2023-07-13T01:04:34;96052.00;;;18.00
10869;BMP180;62667;48.698;8.762;2023-07-13T01:07:02;96063.00;;;18.10
10869;BMP180;62667;48.698;8.762;2023-07-13T01:09:29;96056.00;;;18.10
10869;BMP180;62667;48.698;8.762;2023-07-13T01:11:58;96061.00;;;18.10
10869;BMP180;62667;48.698;8.762;2023-07-13T01:14:26;96064.00;;;17.90
10869;BMP180;62667;48.698;8.762;2023-07-13T01:16:54;96065.00;;;18.00
10869;BMP180;62667;48.698;8.762;2023-07-13T01:19:32;96065.00;;;18.10
10869;BMP180;62667;48.698;8.762;2023-07-13T01:22:04;96057.00;;;17.90
10869;BMP180;62667;48.698;8.762;2023-07-13T01:24:35;96061.00;;;17.90
10869;BMP180;62667;48.698;8.762;2023-07-13T01:27:03;96064.00;;;17.90
10869;BMP180;62667;48.698;8.762;2023-07-13T01:29:33;96063.00;;;18.10
10869;BMP180;62667;48.698;8.762;2023-07-13T01:32:01;96057.00;;;17.80
10869;BMP180;62667;48.698;8.762;2023-07-13T01:34:28;96065.00;;;17.70
10869;BMP180;62667;48.698;8.762;2023-07-13T01:36:56;96056.00;;;17.60
10869;BMP180;62667;48.698;8.762;2023-07-13T01:39:25;96065.00;;;17.40
10869;BMP180;62667;48.698;8.762;2023-07-13T01:41:52;96064.00;;;17.30
10869;BMP180;62667;48.698;8.762;2023-07-13T01:44:20;96059.00;;;17.20
10869;BMP180;62667;48.698;8.762;2023-07-13T01:46:47;96055.00;;;17.20
10869;BMP180;62667;48.698;8.762;2023-07-13T01:49:15;96055.00;;;17.20
10869;BMP180;62667;48.698;8.762;2023-07-13T01:51:42;96054.00;;;17.30
10869;BMP180;62667;48.698;8.762;2023-07-13T01:54:09;96063.00;;;17.30
10869;BMP180;62667;48.698;8.762;2023-07-13T01:56:38;96067.00;;;17.30
10869;BMP180;62667;48.698;8.762;2023-07-13T01:59:07;96054.00;;;17.30
10869;BMP180;62667;48.698;8.762;2023-07-13T02:01:35;96064.00;;;17.30
10869;BMP180;62667;48.698;8.762;2023-07-13T02:04:03;96062.00;;;17.20
10869;BMP180;62667;48.698;8.762;2023-07-13T02:06:30;96058.00;;;17.20
10869;BMP180;62667;48.698;8.762;2023-07-13T02:08:58;96060.00;;;17.20
10869;BMP180;62667;48.698;8.762;2023-07-13T02:11:26;96067.00;;;17.30
10869;BMP180;62667;48.698;8.762;2023-07-13T02:14:00;96063.00;;;17.30
10869;BMP180;62667;48.698;8.762;2023-07-13T02:16:28;96054.00;;;17.30
10869;BMP180;62667;48.698;8.762;2023-07-13T02:18:55;96062.00;;;17.10
10869;BMP180;62667;48.698;8.762;2023-07-13T02:21:23;96056.00;;;17.10
10869;BMP180;62667;48.698;8.762;2023-07-13T02:23:51;96057.00;;;17.00
10869;BMP180;62667;48.698;8.762;2023-07-13T02:26:19;96050.00;;;17.00
10869;BMP180;62667;48.698;8.762;2023-07-13T02:28:46;96055.00;;;17.00
10869;BMP180;62667;48.698;8.762;2023-07-13T02:31:15;96061.00;;;16.90
10869;BMP180;62667;48.698;8.762;2023-07-13T02:33:43;96064.00;;;17.00
10869;BMP180;62667;48.698;8.762;2023-07-13T02:36:11;96061.00;;;16.90
10869;BMP180;62667;48.698;8.762;2023-07-13T02:38:40;96067.00;;;16.80
10869;BMP180;62667;48.698;8.762;2023-07-13T02:41:08;96065.00;;;16.90
10869;BMP180;62667;48.698;8.762;2023-07-13T02:43:36;96067.00;;;16.80
10869;BMP180;62667;48.698;8.762;2023-07-13T02:46:04;96074.00;;;16.60
10869;BMP180;62667;48.698;8.762;2023-07-13T02:48:35;96073.00;;;16.70
10869;BMP180;62667;48.698;8.762;2023-07-13T02:51:03;96078.00;;;16.60
10869;BMP180;62667;48.698;8.762;2023-07-13T02:53:30;96083.00;;;16.60
10869;BMP180;62667;48.698;8.762;2023-07-13T02:55:58;96074.00;;;16.70
10869;BMP180;62667;48.698;8.762;2023-07-13T02:58:26;96067.00;;;16.60
10869;BMP180;62667;48.698;8.762;2023-07-13T03:00:53;96077.00;;;16.60
10869;BMP180;62667;48.698;8.762;2023-07-13T03:03:20;96065.00;;;16.60
10869;BMP180;62667;48.698;8.762;2023-07-13T03:05:58;96060.00;;;16.60
10869;BMP180;62667;48.698;8.762;2023-07-13T03:08:26;96063.00;;;16.70
10869;BMP180;62667;48.698;8.762;2023-07-13T03:10:59;96068.00;;;16.60
10869;BMP180;62667;48.698;8.762;2023-07-13T03:13:27;96065.00;;;16.70
10869;BMP180;62667;48.698;8.762;2023-07-13T03:15:55;96068.00;;;16.60
10869;BMP180;62667;48.698;8.762;2023-07-13T03:18:22;96071.00;;;16.60
10869;BMP180;62667;48.698;8.762;2023-07-13T03:20:52;96064.00;;;16.40
10869;BMP180;62667;48.698;8.762;2023-07-13T03:23:20;96068.00;;;16.50
10869;BMP180;62667;48.698;8.762;2023-07-13T03:25:48;96076.00;;;16.40
10869;BMP180;62667;48.698;8.762;2023-07-13T03:28:16;96072.00;;;16.10
10869;BMP180;62667;48.698;8.762;2023-07-13T03:30:43;96078.00;;;16.00
10869;BMP180;62667;48.698;8.762;2023-07-13T03:33:10;96086.00;;;16.10
10869;BMP180;62667;48.698;8.762;2023-07-13T03:35:40;96085.00;;;16.10
10869;BMP180;62667;48.698;8.762;2023-07-13T03:38:09;96089.00;;;16.10
10869;BMP180;62667;48.698;8.762;2023-07-13T03:40:37;96090.00;;;16.10
10869;BMP180;62667;48.698;8.762;2023-07-13T03:43:04;96090.00;;;16.10
10869;BMP180;62667;48.698;8.762;2023-07-13T03:45:32;96089.00;;;16.00
10869;BMP180;62667;48.698;8.762;2023-07-13T03:47:59;96099.00;;;16.10
10869;BMP180;62667;48.698;8.762;2023-07-13T03:50:26;96096.00;;;16.10
10869;BMP180;62667;48.698;8.762;2023-07-13T03:52:54;96100.00;;;16.10
10869;BMP180;62667;48.698;8.762;2023-07-13T03:55:23;96105.00;;;16.10
10869;BMP180;62667;48.698;8.762;2023-07-13T03:57:57;96108.00;;;15.90
10869;BMP180;62667;48.698;8.762;2023-07-13T04:00:25;96109.00;;;16.00
10869;BMP180;62667;48.698;8.762;2023-07-13T04:02:53;96112.00;;;15.90
10869;BMP180;62667;48.698;8.762;2023-07-13T04:05:20;96108.00;;;15.70
10869;BMP180;62667;48.698;8.762;2023-07-13T04:07:48;96103.00;;;15.80
10869;BMP180;62667;48.698;8.762;2023-07-13T04:10:15;96117.00;;;15.90
10869;BMP180;62667;48.698;8.762;2023-07-13T04:12:44;96111.00;;;15.70
10869;BMP180;62667;48.698;8.762;2023-07-13T04:15:11;96114.00;;;15.80
10869;BMP180;62667;48.698;8.762;2023-07-13T04:17:39;96122.00;;;15.80
10869;BMP180;62667;48.698;8.762;2023-07-13T04:20:07;96117.00;;;15.80
10869;BMP180;62667;48.698;8.762;2023-07-13T04:22:34;96121.00;;;15.90
10869;BMP180;62667;48.698;8.762;2023-07-13T04:25:02;96121.00;;;15.90
10869;BMP180;62667;48.698;8.762;2023-07-13T04:27:31;96120.00;;;15.90
10869;BMP180;62667;48.698;8.762;2023-07-13T04:30:00;96120.00;;;16.00
10869;BMP180;62667;48.698;8.762;2023-07-13T04:32:27;96127.00;;;16.10
10869;BMP180;62667;48.698;8.762;2023-07-13T04:34:55;96121.00;;;16.10
10869;BMP180;62667;48.698;8.762;2023-07-13T04:37:23;96115.00;;;16.00
10869;BMP180;62667;48.698;8.762;2023-07-13T04:39:51;96124.00;;;16.10
10869;BMP180;62667;48.698;8.762;2023-07-13T04:42:18;96122.00;;;16.20
10869;BMP180;62667;48.698;8.762;2023-07-13T04:44:48;96122.00;;;16.30
10869;BMP180;62667;48.698;8.762;2023-07-13T04:47:17;96125.00;;;16.20
10869;BMP180;62667;48.698;8.762;2023-07-13T04:49:45;96130.00;;;16.30
10869;BMP180;62667;48.698;8.762;2023-07-13T04:52:13;96137.00;;;16.40
10869;BMP180;62667;48.698;8.762;2023-07-13T04:54:40;96132.00;;;16.40
10869;BMP180;62667;48.698;8.762;2023-07-13T04:57:08;96139.00;;;16.50
10869;BMP180;62667;48.698;8.762;2023-07-13T04:59:35;96132.00;;;16.50
10869;BMP180;62667;48.698;8.762;2023-07-13T05:02:03;96136.00;;;16.40
10869;BMP180;62667;48.698;8.762;2023-07-13T05:04:33;96142.00;;;16.50
10869;BMP180;62667;48.698;8.762;2023-07-13T05:07:00;96135.00;;;16.60
10869;BMP180;62667;48.698;8.762;2023-07-13T05:09:28;96138.00;;;16.60
10869;BMP180;62667;48.698;8.762;2023-07-13T05:11:55;96137.00;;;16.60
10869;BMP180;62667;48.698;8.762;2023-07-13T05:14:22;96139.00;;;16.50
10869;BMP180;62667;48.698;8.762;2023-07-13T05:16:50;96135.00;;;16.40
10869;BMP180;62667;48.698;8.762;2023-07-13T05:19:17;96141.00;;;16.30
10869;BMP180;62667;48.698;8.762;2023-07-13T05:21:46;96143.00;;;16.30
10869;BMP180;62667;48.698;8.762;2023-07-13T05:24:13;96150.00;;;16.30
10869;BMP180;62667;48.698;8.762;2023-07-13T05:26:41;96150.00;;;16.30
10869;BMP180;62667;48.698;8.762;2023-07-13T05:29:08;96152.00;;;16.30
10869;BMP180;62667;48.698;8.762;2023-07-13T05:31:36;96149.00;;;16.40
10869;BMP180;62667;48.698;8.762;2023-07-13T05:34:03;96151.00;;;16.40
10869;BMP180;62667;48.698;8.762;2023-07-13T05:36:31;96156.00;;;16.50
10869;BMP180;62667;48.698;8.762;2023-07-13T05:39:00;96146.00;;;16.60
10869;BMP180;62667;48.698;8.762;2023-07-13T05:41:27;96147.00;;;16.60
10869;BMP180;62667;48.698;8.762;2023-07-13T05:43:55;96150.00;;;16.70
10869;BMP180;62667;48.698;8.762;2023-07-13T05:46:22;96159.00;;;16.40
10869;BMP180;62667;48.698;8.762;2023-07-13T05:48:50;96163.00;;;16.30
10869;BMP180;62667;48.698;8.762;2023-07-13T05:51:18;96165.00;;;16.50
10869;BMP180;62667;48.698;8.762;2023-07-13T05:53:45;96169.00;;;16.50
10869;BMP180;62667;48.698;8.762;2023-07-13T05:56:14;96170.00;;;16.60
10869;BMP180;62667;48.698;8.762;2023-07-13T05:58:41;96168.00;;;16.70
10869;BMP180;62667;48.698;8.762;2023-07-13T06:01:11;96177.00;;;16.90
10869;BMP180;62667;48.698;8.762;2023-07-13T06:03:39;96181.00;;;16.90
10869;BMP180;62667;48.698;8.762;2023-07-13T06:06:08;96184.00;;;16.90
10869;BMP180;62667;48.698;8.762;2023-07-13T06:08:36;96194.00;;;17.00
10869;BMP180;62667;48.698;8.762;2023-07-13T06:11:05;96190.00;;;16.90
10869;BMP180;62667;48.698;8.762;2023-07-13T06:13:35;96186.00;;;17.20
10869;BMP180;62667;48.698;8.762;2023-07-13T06:16:04;96192.00;;;17.30
10869;BMP180;62667;48.698;8.762;2023-07-13T06:18:32;96195.00;;;17.40
10869;BMP180;62667;48.698;8.762;2023-07-13T06:21:00;96200.00;;;17.60
10869;BMP180;62667;48.698;8.762;2023-07-13T06:23:27;96198.00;;;17.70
10869;BMP180;62667;48.698;8.762;2023-07-13T06:25:54;96197.00;;;17.50
10869;BMP180;62667;48.698;8.762;2023-07-13T06:28:22;96192.00;;;17.80
10869;BMP180;62667;48.698;8.762;2023-07-13T06:30:51;96196.00;;;18.00
10869;BMP180;62667;48.698;8.762;2023-07-13T06:33:18;96194.00;;;18.20
10869;BMP180;62667;48.698;8.762;2023-07-13T06:35:46;96196.00;;;18.20
10869;BMP180;62667;48.698;8.762;2023-07-13T06:38:13;96199.00;;;18.00
10869;BMP180;62667;48.698;8.762;2023-07-13T06:40:41;96210.00;;;18.10
10869;BMP180;62667;48.698;8.762;2023-07-13T06:43:11;96208.00;;;18.30
10869;BMP180;62667;48.698;8.762;2023-07-13T06:45:42;96210.00;;;18.20
10869;BMP180;62667;48.698;8.762;2023-07-13T06:48:10;96217.00;;;18.40
10869;BMP180;62667;48.698;8.762;2023-07-13T06:50:38;96206.00;;;18.40
10869;BMP180;62667;48.698;8.762;2023-07-13T06:53:05;96203.00;;;18.60
10869;BMP180;62667;48.698;8.762;2023-07-13T06:55:33;96207.00;;;18.60
10869;BMP180;62667;48.698;8.762;2023-07-13T06:58:00;96211.00;;;18.60
10869;BMP180;62667;48.698;8.762;2023-07-13T07:00:28;96203.00;;;18.70
10869;BMP180;62667;48.698;8.762;2023-07-13T07:02:56;96213.00;;;19.00
10869;BMP180;62667;48.698;8.762;2023-07-13T07:05:25;96217.00;;;18.90
10869;BMP180;62667;48.698;8.762;2023-07-13T07:07:53;96219.00;;;18.90
10869;BMP180;62667;48.698;8.762;2023-07-13T07:10:21;96219.00;;;19.10
10869;BMP180;62667;48.698;8.762;2023-07-13T07:12:49;96220.00;;;19.20
10869;BMP180;62667;48.698;8.762;2023-07-13T07:15:16;96218.00;;;19.20
10869;BMP180;62667;48.698;8.762;2023-07-13T07:17:44;96221.00;;;19.40
10869;BMP180;62667;48.698;8.762;2023-07-13T07:20:12;96212.00;;;19.10
10869;BMP180;62667;48.698;8.762;2023-07-13T07:22:41;96214.00;;;19.20
10869;BMP180;62667;48.698;8.762;2023-07-13T07:25:08;96214.00;;;19.40
10869;BMP180;62667;48.698;8.762;2023-07-13T07:27:36;96217.00;;;19.60
10869;BMP180;62667;48.698;8.762;2023-07-13T07:30:04;96212.00;;;19.80
10869;BMP180;62667;48.698;8.762;2023-07-13T07:32:33;96200.00;;;19.90
10869;BMP180;62667;48.698;8.762;2023-07-13T07:35:00;96204.00;;;20.00
10869;BMP180;62667;48.698;8.762;2023-07-13T07:37:28;96203.00;;;20.10
10869;BMP180;62667;48.698;8.762;2023-07-13T07:39:56;96207.00;;;20.30
10869;BMP180;62667;48.698;8.762;2023-07-13T07:42:25;96203.00;;;20.30
10869;BMP180;62667;48.698;8.762;2023-07-13T07:44:52;96207.00;;;20.40
10869;BMP180;62667;48.698;8.762;2023-07-13T07:47:20;96209.00;;;20.50
10869;BMP180;62667;48.698;8.762;2023-07-13T07:49:49;96202.00;;;20.60
10869;BMP180;62667;48.698;8.762;2023-07-13T07:52:16;96212.00;;;20.80
10869;BMP180;62667;48.698;8.762;2023-07-13T07:54:44;96202.00;;;20.90
10869;BMP180;62667;48.698;8.762;2023-07-13T07:57:13;96211.00;;;20.80
10869;BMP180;62667;48.698;8.762;2023-07-13T07:59:40;96219.00;;;21.10
10869;BMP180;62667;48.698;8.762;2023-07-13T08:02:09;96214.00;;;21.00
10869;BMP180;62667;48.698;8.762;2023-07-13T08:04:37;96208.00;;;21.10
10869;BMP180;62667;48.698;8.762;2023-07-13T08:07:05;96218.00;;;21.30
10869;BMP180;62667;48.698;8.762;2023-07-13T08:09:33;96209.00;;;20.90
10869;BMP180;62667;48.698;8.762;2023-07-13T08:12:00;96211.00;;;21.20
10869;BMP180;62667;48.698;8.762;2023-07-13T08:14:29;96214.00;;;21.50
10869;BMP180;62667;48.698;8.762;2023-07-13T08:16:56;96211.00;;;21.30
10869;BMP180;62667;48.698;8.762;2023-07-13T08:19:24;96212.00;;;21.60
10869;BMP180;62667;48.698;8.762;2023-07-13T08:21:52;96208.00;;;22.00
10869;BMP180;62667;48.698;8.762;2023-07-13T08:24:23;96199.00;;;22.00
10869;BMP180;62667;48.698;8.762;2023-07-13T08:26:51;96206.00;;;21.90
10869;BMP180;62667;48.698;8.762;2023-07-13T08:29:19;96203.00;;;21.70
10869;BMP180;62667;48.698;8.762;2023-07-13T08:31:48;96203.00;;;22.20
10869;BMP180;62667;48.698;8.762;2023-07-13T08:34:16;96200.00;;;22.30
10869;BMP180;62667;48.698;8.762;2023-07-13T08:36:43;96206.00;;;22.40
10869;BMP180;62667;48.698;8.762;2023-07-13T08:39:11;96210.00;;;22.60
10869;BMP180;62667;48.698;8.762;2023-07-13T08:41:39;96203.00;;;22.60
10869;BMP180;62667;48.698;8.762;2023-07-13T08:44:15;96206.00;;;22.70
10869;BMP180;62667;48.698;8.762;2023-07-13T08:46:45;96215.00;;;22.30
10869;BMP180;62667;48.698;8.762;2023-07-13T08:49:17;96221.00;;;22.10
10869;BMP180;62667;48.698;8.762;2023-07-13T08:51:51;96216.00;;;22.20
10869;BMP180;62667;48.698;8.762;2023-07-13T08:54:27;96207.00;;;22.40
10869;BMP180;62667;48.698;8.762;2023-07-13T08:56:56;96204.00;;;22.80
10869;BMP180;62667;48.698;8.762;2023-07-13T08:59:26;96195.00;;;22.90
10869;BMP180;62667;48.698;8.762;2023-07-13T09:02:09;96219.00;;;22.30
10869;BMP180;62667;48.698;8.762;2023-07-13T09:04:46;96214.00;;;22.50
10869;BMP180;62667;48.698;8.762;2023-07-13T09:07:20;96213.00;;;22.40
10869;BMP180;62667;48.698;8.762;2023-07-13T09:10:00;96212.00;;;22.10
10869;BMP180;62667;48.698;8.762;2023-07-13T09:12:39;96207.00;;;22.40
10869;BMP180;62667;48.698;8.762;2023-07-13T09:15:22;96219.00;;;22.70
10869;BMP180;62667;48.698;8.762;2023-07-13T09:17:52;96216.00;;;22.90
10869;BMP180;62667;48.698;8.762;2023-07-13T09:20:27;96221.00;;;22.80
10869;BMP180;62667;48.698;8.762;2023-07-13T09:22:57;96233.00;;;22.70
10869;BMP180;62667;48.698;8.762;2023-07-13T09:25:30;96222.00;;;22.50
10869;BMP180;62667;48.698;8.762;2023-07-13T09:28:01;96230.00;;;22.40
10869;BMP180;62667;48.698;8.762;2023-07-13T09:30:34;96228.00;;;22.30
10869;BMP180;62667;48.698;8.762;2023-07-13T09:33:04;96221.00;;;22.20
10869;BMP180;62667;48.698;8.762;2023-07-13T09:35:35;96230.00;;;22.70
10869;BMP180;62667;48.698;8.762;2023-07-13T09:38:10;96219.00;;;22.10
10869;BMP180;62667;48.698;8.762;2023-07-13T09:40:49;96211.00;;;22.60
10869;BMP180;62667;48.698;8.762;2023-07-13T09:43:21;96211.00;;;22.80
10869;BMP180;62667;48.698;8.762;2023-07-13T09:45:49;96203.00;;;23.40
10869;BMP180;62667;48.698;8.762;2023-07-13T09:48:17;96220.00;;;23.90
10869;BMP180;62667;48.698;8.762;2023-07-13T09:50:47;96207.00;;;23.40
10869;BMP180;62667;48.698;8.762;2023-07-13T09:53:16;96216.00;;;23.10
10869;BMP180;62667;48.698;8.762;2023-07-13T09:55:46;96211.00;;;23.60
10869;BMP180;62667;48.698;8.762;2023-07-13T09:58:15;96210.00;;;23.60
10869;BMP180;62667;48.698;8.762;2023-07-13T10:00:53;96230.00;;;23.60
10869;BMP180;62667;48.698;8.762;2023-07-13T10:03:22;96232.00;;;23.30
10869;BMP180;62667;48.698;8.762;2023-07-13T10:05:52;96215.00;;;23.70
10869;BMP180;62667;48.698;8.762;2023-07-13T10:08:25;96215.00;;;23.90
10869;BMP180;62667;48.698;8.762;2023-07-13T10:10:58;96210.00;;;24.40
10869;BMP180;62667;48.698;8.762;2023-07-13T10:13:37;96215.00;;;24.00
10869;BMP180;62667;48.698;8.762;2023-07-13T10:16:08;96228.00;;;24.10
10869;BMP180;62667;48.698;8.762;2023-07-13T10:18:41;96219.00;;;24.30
10869;BMP180;62667;48.698;8.762;2023-07-13T10:21:17;96235.00;;;23.70
10869;BMP180;62667;48.698;8.762;2023-07-13T10:23:47;96229.00;;;23.70
10869;BMP180;62667;48.698;8.762;2023-07-13T10:26:19;96228.00;;;23.60
10869;BMP180;62667;48.698;8.762;2023-07-13T10:28:53;96214.00;;;23.60
10869;BMP180;62667;48.698;8.762;2023-07-13T10:31:21;96230.00;;;23.30
10869;BMP180;62667;48.698;8.762;2023-07-13T10:33:50;96219.00;;;23.20
10869;BMP180;62667;48.698;8.762;2023-07-13T10:36:25;96218.00;;;23.50
10869;BMP180;62667;48.698;8.762;2023-07-13T10:38:56;96220.00;;;23.80
10869;BMP180;62667;48.698;8.762;2023-07-13T10:41:26;96212.00;;;24.10
10869;BMP180;62667;48.698;8.762;2023-07-13T10:43:56;96218.00;;;24.40
10869;BMP180;62667;48.698;8.762;2023-07-13T10:46:25;96228.00;;;24.30
10869;BMP180;62667;48.698;8.762;2023-07-13T10:48:57;96230.00;;;24.00
10869;BMP180;62667;48.698;8.762;2023-07-13T10:51:27;96231.00;;;24.00
10869;BMP180;62667;48.698;8.762;2023-07-13T10:54:11;96233.00;;;24.10
10869;BMP180;62667;48.698;8.762;2023-07-13T10:56:43;96223.00;;;24.20
10869;BMP180;62667;48.698;8.762;2023-07-13T10:59:14;96223.00;;;25.00
10869;BMP180;62667;48.698;8.762;2023-07-13T11:01:52;96215.00;;;25.30
10869;BMP180;62667;48.698;8.762;2023-07-13T11:04:21;96222.00;;;25.40
10869;BMP180;62667;48.698;8.762;2023-07-13T11:06:56;96209.00;;;25.50
10869;BMP180;62667;48.698;8.762;2023-07-13T11:09:38;96219.00;;;25.60
10869;BMP180;62667;48.698;8.762;2023-07-13T11:12:26;96201.00;;;25.60
10869;BMP180;62667;48.698;8.762;2023-07-13T11:15:10;96218.00;;;25.40
10869;BMP180;62667;48.698;8.762;2023-07-13T11:17:49;96228.00;;;24.80
10869;BMP180;62667;48.698;8.762;2023-07-13T11:20:23;96220.00;;;24.20
10869;BMP180;62667;48.698;8.762;2023-07-13T11:23:17;96230.00;;;23.80
10869;BMP180;62667;48.698;8.762;2023-07-13T11:25:46;96233.00;;;23.50
10869;BMP180;62667;48.698;8.762;2023-07-13T11:28:21;96205.00;;;23.90
10869;BMP180;62667;48.698;8.762;2023-07-13T11:30:59;96199.00;;;24.40
10869;BMP180;62667;48.698;8.762;2023-07-13T11:33:44;96217.00;;;25.30
10869;BMP180;62667;48.698;8.762;2023-07-13T11:36:14;96212.00;;;24.40
10869;BMP180;62667;48.698;8.762;2023-07-13T11:38:47;96214.00;;;24.20
10869;BMP180;62667;48.698;8.762;2023-07-13T11:41:18;96216.00;;;24.60
10869;BMP180;62667;48.698;8.762;2023-07-13T11:43:49;96188.00;;;24.70
10869;BMP180;62667;48.698;8.762;2023-07-13T11:46:21;96187.00;;;25.40
10869;BMP180;62667;48.698;8.762;2023-07-13T11:48:50;96183.00;;;25.20
10869;BMP180;62667;48.698;8.762;2023-07-13T11:51:21;96213.00;;;24.70
10869;BMP180;62667;48.698;8.762;2023-07-13T11:53:51;96214.00;;;24.30
10869;BMP180;62667;48.698;8.762;2023-07-13T11:56:19;96218.00;;;23.90
10869;BMP180;62667;48.698;8.762;2023-07-13T11:58:50;96187.00;;;23.60
10869;BMP180;62667;48.698;8.762;2023-07-13T12:01:22;96191.00;;;24.30
10869;BMP180;62667;48.698;8.762;2023-07-13T12:03:50;96198.00;;;24.60
10869;BMP180;62667;48.698;8.762;2023-07-13T12:06:27;96211.00;;;24.90
10869;BMP180;62667;48.698;8.762;2023-07-13T12:09:00;96237.00;;;24.10
10869;BMP180;62667;48.698;8.762;2023-07-13T12:11:30;96193.00;;;24.20
10869;BMP180;62667;48.698;8.762;2023-07-13T12:13:57;96185.00;;;24.30
10869;BMP180;62667;48.698;8.762;2023-07-13T12:16:29;96214.00;;;24.40
10869;BMP180;62667;48.698;8.762;2023-07-13T12:19:00;96196.00;;;24.80
10869;BMP180;62667;48.698;8.762;2023-07-13T12:21:31;96219.00;;;24.80
10869;BMP180;62667;48.698;8.762;2023-07-13T12:24:01;96218.00;;;24.70
10869;BMP180;62667;48.698;8.762;2023-07-13T12:26:30;96232.00;;;25.40
10869;BMP180;62667;48.698;8.762;2023-07-13T12:29:00;96198.00;;;26.00
10869;BMP180;62667;48.698;8.762;2023-07-13T12:31:33;96190.00;;;25.30
10869;BMP180;62667;48.698;8.762;2023-07-13T12:34:05;96193.00;;;25.30
10869;BMP180;62667;48.698;8.762;2023-07-13T12:36:35;96222.00;;;24.80
10869;BMP180;62667;48.698;8.762;2023-07-13T12:39:14;96233.00;;;24.50
10869;BMP180;62667;48.698;8.762;2023-07-13T12:41:42;96229.00;;;24.20
10869;BMP180;62667;48.698;8.762;2023-07-13T12:44:12;96204.00;;;24.50
10869;BMP180;62667;48.698;8.762;2023-07-13T12:46:57;96212.00;;;25.10
10869;BMP180;62667;48.698;8.762;2023-07-13T12:49:28;96198.00;;;25.70
10869;BMP180;62667;48.698;8.762;2023-07-13T12:52:01;96207.00;;;26.50
10869;BMP180;62667;48.698;8.762;2023-07-13T12:54:31;96216.00;;;26.20
10869;BMP180;62667;48.698;8.762;2023-07-13T12:57:00;96230.00;;;25.60
10869;BMP180;62667;48.698;8.762;2023-07-13T12:59:32;96232.00;;;25.40
10869;BMP180;62667;48.698;8.762;2023-07-13T13:02:21;96205.00;;;25.70
10869;BMP180;62667;48.698;8.762;2023-07-13T13:04:50;96201.00;;;26.10
10869;BMP180;62667;48.698;8.762;2023-07-13T13:07:17;96202.00;;;27.10
10869;BMP180;62667;48.698;8.762;2023-07-13T13:09:47;96198.00;;;26.40
10869;BMP180;62667;48.698;8.762;2023-07-13T13:12:15;96199.00;;;25.90
10869;BMP180;62667;48.698;8.762;2023-07-13T13:14:43;96210.00;;;25.30
10869;BMP180;62667;48.698;8.762;2023-07-13T13:17:18;96221.00;;;25.00
10869;BMP180;62667;48.698;8.762;2023-07-13T13:19:46;96238.00;;;24.90
10869;BMP180;62667;48.698;8.762;2023-07-13T13:22:14;96219.00;;;25.10
10869;BMP180;62667;48.698;8.762;2023-07-13T13:24:41;96243.00;;;24.90
10869;BMP180;62667;48.698;8.762;2023-07-13T13:27:15;96215.00;;;24.70
10869;BMP180;62667;48.698;8.762;2023-07-13T13:29:44;96208.00;;;26.00
10869;BMP180;62667;48.698;8.762;2023-07-13T13:32:12;96204.00;;;27.00
10869;BMP180;62667;48.698;8.762;2023-07-13T13:34:40;96208.00;;;26.70
10869;BMP180;62667;48.698;8.762;2023-07-13T13:37:17;96201.00;;;26.80
10869;BMP180;62667;48.698;8.762;2023-07-13T13:39:46;96211.00;;;26.10
10869;BMP180;62667;48.698;8.762;2023-07-13T13:42:15;96192.00;;;26.70
10869;BMP180;62667;48.698;8.762;2023-07-13T13:44:42;96209.00;;;26.70
10869;BMP180;62667;48.698;8.762;2023-07-13T13:47:25;96232.00;;;26.60
10869;BMP180;62667;48.698;8.762;2023-07-13T13:49:53;96214.00;;;26.10
10869;BMP180;62667;48.698;8.762;2023-07-13T13:52:21;96210.00;;;26.80
10869;BMP180;62667;48.698;8.762;2023-07-13T13:54:48;96229.00;;;26.60
10869;BMP180;62667;48.698;8.762;2023-07-13T13:57:17;96191.00;;;25.80
10869;BMP180;62667;48.698;8.762;2023-07-13T13:59:44;96190.00;;;26.00
10869;BMP180;62667;48.698;8.762;2023-07-13T14:02:22;96182.00;;;27.20
10869;BMP180;62667;48.698;8.762;2023-07-13T14:04:54;96198.00;;;28.00
10869;BMP180;62667;48.698;8.762;2023-07-13T14:07:22;96235.00;;;27.50
10869;BMP180;62667;48.698;8.762;2023-07-13T14:09:49;96252.00;;;25.90
10869;BMP180;62667;48.698;8.762;2023-07-13T14:12:18;96233.00;;;25.40
10869;BMP180;62667;48.698;8.762;2023-07-13T14:14:46;96236.00;;;24.60
10869;BMP180;62667;48.698;8.762;2023-07-13T14:19:42;96207.00;;;25.90
10869;BMP180;62667;48.698;8.762;2023-07-13T14:22:09;96227.00;;;26.30
10869;BMP180;62667;48.698;8.762;2023-07-13T14:24:37;96212.00;;;26.50
10869;BMP180;62667;48.698;8.762;2023-07-13T14:27:05;96219.00;;;26.50